Aviation Digital Data Service (ADDS)

Output produced by METARs form (1235 UTC 10 July 2020)
found at http://www.aviationweather.gov/metar/data/
 
METAR text: RJTI 100700Z 18010KT 150V230 9000 FEW012 SCT100 BKN/// 25/24 Q1010
Conditions at: RJTI (TOKYO HELIPORT , JP) observed 0700 UTC 10 July 2020
Temperature: 25.0°C (77°F)
Dewpoint: 24.0°C (75°F) [RH = 94%]
Pressure (altimeter): 29.82 inches Hg (1010.0 mb)
Winds: from the S (180 degrees) at 12 MPH (10 knots; 5.1 m/s)
Visibility: 6 miles ( 9 km)
Ceiling: at least 12,000 feet AGL
Clouds: few clouds at 1200 feet AGL
scattered clouds at 10000 feet AGL
Weather: no significant weather observed at this time